sensor_id;sensor_type;location;lat;lon;timestamp;P1;durP1;ratioP1;P2;durP2;ratioP2
6376;SDS011;3221;48.858;10.128;2024-01-10T00:01:59;18.83;;;12.20;;
6376;SDS011;3221;48.858;10.128;2024-01-10T00:04:26;17.40;;;12.47;;
6376;SDS011;3221;48.858;10.128;2024-01-10T00:06:53;16.23;;;11.70;;
6376;SDS011;3221;48.858;10.128;2024-01-10T00:09:20;18.07;;;11.80;;
6376;SDS011;3221;48.858;10.128;2024-01-10T00:11:47;17.47;;;11.70;;
6376;SDS011;3221;48.858;10.128;2024-01-10T00:14:14;18.63;;;12.93;;
6376;SDS011;3221;48.858;10.128;2024-01-10T00:16:42;20.07;;;12.10;;
6376;SDS011;3221;48.858;10.128;2024-01-10T00:19:09;17.87;;;12.57;;
6376;SDS011;3221;48.858;10.128;2024-01-10T00:21:36;17.57;;;11.50;;
6376;SDS011;3221;48.858;10.128;2024-01-10T00:24:03;18.80;;;12.20;;
6376;SDS011;3221;48.858;10.128;2024-01-10T00:26:30;18.80;;;12.40;;
6376;SDS011;3221;48.858;10.128;2024-01-10T00:28:57;20.07;;;12.77;;
6376;SDS011;3221;48.858;10.128;2024-01-10T00:31:30;18.20;;;12.23;;
6376;SDS011;3221;48.858;10.128;2024-01-10T00:33:57;18.77;;;12.43;;
6376;SDS011;3221;48.858;10.128;2024-01-10T00:36:24;18.90;;;12.70;;
6376;SDS011;3221;48.858;10.128;2024-01-10T00:38:51;20.07;;;12.43;;
6376;SDS011;3221;48.858;10.128;2024-01-10T00:41:18;18.13;;;12.80;;
6376;SDS011;3221;48.858;10.128;2024-01-10T00:43:45;19.30;;;12.90;;
6376;SDS011;3221;48.858;10.128;2024-01-10T00:46:12;18.83;;;12.53;;
6376;SDS011;3221;48.858;10.128;2024-01-10T00:48:39;18.07;;;12.50;;
6376;SDS011;3221;48.858;10.128;2024-01-10T00:51:06;18.00;;;11.90;;
6376;SDS011;3221;48.858;10.128;2024-01-10T00:53:35;18.97;;;12.83;;
6376;SDS011;3221;48.858;10.128;2024-01-10T00:56:02;18.83;;;12.97;;
6376;SDS011;3221;48.858;10.128;2024-01-10T00:58:29;17.23;;;11.73;;
6376;SDS011;3221;48.858;10.128;2024-01-10T01:00:56;19.13;;;12.37;;
6376;SDS011;3221;48.858;10.128;2024-01-10T01:03:23;18.30;;;12.10;;
6376;SDS011;3221;48.858;10.128;2024-01-10T01:05:50;20.47;;;12.13;;
6376;SDS011;3221;48.858;10.128;2024-01-10T01:08:17;19.23;;;12.43;;
6376;SDS011;3221;48.858;10.128;2024-01-10T01:10:43;20.37;;;13.00;;
6376;SDS011;3221;48.858;10.128;2024-01-10T01:13:10;19.60;;;12.67;;
6376;SDS011;3221;48.858;10.128;2024-01-10T01:15:37;20.20;;;12.97;;
6376;SDS011;3221;48.858;10.128;2024-01-10T01:18:04;21.77;;;13.47;;
6376;SDS011;3221;48.858;10.128;2024-01-10T01:20:32;19.90;;;13.13;;
6376;SDS011;3221;48.858;10.128;2024-01-10T01:22:59;17.50;;;11.97;;
6376;SDS011;3221;48.858;10.128;2024-01-10T01:25:26;19.90;;;12.93;;
6376;SDS011;3221;48.858;10.128;2024-01-10T01:27:53;20.97;;;12.50;;
6376;SDS011;3221;48.858;10.128;2024-01-10T01:30:20;20.93;;;13.07;;
6376;SDS011;3221;48.858;10.128;2024-01-10T01:32:48;18.60;;;12.80;;
6376;SDS011;3221;48.858;10.128;2024-01-10T01:35:15;16.23;;;12.07;;
6376;SDS011;3221;48.858;10.128;2024-01-10T01:37:48;19.23;;;12.40;;
6376;SDS011;3221;48.858;10.128;2024-01-10T01:40:15;18.97;;;12.50;;
6376;SDS011;3221;48.858;10.128;2024-01-10T01:42:43;19.23;;;13.10;;
6376;SDS011;3221;48.858;10.128;2024-01-10T01:45:14;20.40;;;12.97;;
6376;SDS011;3221;48.858;10.128;2024-01-10T01:47:41;20.00;;;12.67;;
6376;SDS011;3221;48.858;10.128;2024-01-10T01:50:08;18.63;;;12.90;;
6376;SDS011;3221;48.858;10.128;2024-01-10T01:52:37;20.37;;;13.27;;
6376;SDS011;3221;48.858;10.128;2024-01-10T01:55:04;18.27;;;12.80;;
6376;SDS011;3221;48.858;10.128;2024-01-10T01:57:33;21.30;;;13.43;;
6376;SDS011;3221;48.858;10.128;2024-01-10T02:00:01;20.40;;;13.63;;
6376;SDS011;3221;48.858;10.128;2024-01-10T02:02:30;19.20;;;12.93;;
6376;SDS011;3221;48.858;10.128;2024-01-10T02:04:58;18.67;;;12.90;;
6376;SDS011;3221;48.858;10.128;2024-01-10T02:07:25;20.07;;;13.50;;
6376;SDS011;3221;48.858;10.128;2024-01-10T02:09:53;19.87;;;13.43;;
6376;SDS011;3221;48.858;10.128;2024-01-10T02:12:20;19.80;;;13.47;;
6376;SDS011;3221;48.858;10.128;2024-01-10T02:14:47;18.37;;;13.43;;
6376;SDS011;3221;48.858;10.128;2024-01-10T02:17:14;20.67;;;13.67;;
6376;SDS011;3221;48.858;10.128;2024-01-10T02:19:41;20.87;;;14.23;;
6376;SDS011;3221;48.858;10.128;2024-01-10T02:22:08;20.23;;;13.13;;
6376;SDS011;3221;48.858;10.128;2024-01-10T02:24:37;21.50;;;12.37;;
6376;SDS011;3221;48.858;10.128;2024-01-10T02:27:04;21.00;;;13.33;;
6376;SDS011;3221;48.858;10.128;2024-01-10T02:29:31;19.80;;;13.37;;
6376;SDS011;3221;48.858;10.128;2024-01-10T02:31:58;19.33;;;13.50;;
6376;SDS011;3221;48.858;10.128;2024-01-10T02:34:25;19.93;;;13.77;;
6376;SDS011;3221;48.858;10.128;2024-01-10T02:36:52;19.63;;;13.37;;
6376;SDS011;3221;48.858;10.128;2024-01-10T02:39:19;19.97;;;12.90;;
6376;SDS011;3221;48.858;10.128;2024-01-10T02:41:45;20.77;;;13.87;;
6376;SDS011;3221;48.858;10.128;2024-01-10T02:44:12;20.00;;;13.30;;
6376;SDS011;3221;48.858;10.128;2024-01-10T02:46:40;20.57;;;12.97;;
6376;SDS011;3221;48.858;10.128;2024-01-10T02:49:07;19.57;;;12.83;;
6376;SDS011;3221;48.858;10.128;2024-01-10T02:51:34;20.50;;;13.60;;
6376;SDS011;3221;48.858;10.128;2024-01-10T02:54:01;19.23;;;13.13;;
6376;SDS011;3221;48.858;10.128;2024-01-10T02:56:28;20.13;;;13.60;;
6376;SDS011;3221;48.858;10.128;2024-01-10T02:58:55;19.03;;;13.80;;
6376;SDS011;3221;48.858;10.128;2024-01-10T03:01:22;22.77;;;14.53;;
6376;SDS011;3221;48.858;10.128;2024-01-10T03:03:49;23.53;;;13.87;;
6376;SDS011;3221;48.858;10.128;2024-01-10T03:06:17;21.57;;;14.33;;
6376;SDS011;3221;48.858;10.128;2024-01-10T03:08:44;19.30;;;13.43;;
6376;SDS011;3221;48.858;10.128;2024-01-10T03:11:11;20.23;;;13.90;;
6376;SDS011;3221;48.858;10.128;2024-01-10T03:13:38;21.10;;;13.93;;
6376;SDS011;3221;48.858;10.128;2024-01-10T03:16:05;18.30;;;12.50;;
6376;SDS011;3221;48.858;10.128;2024-01-10T03:18:32;22.97;;;13.70;;
6376;SDS011;3221;48.858;10.128;2024-01-10T03:20:59;21.77;;;14.33;;
6376;SDS011;3221;48.858;10.128;2024-01-10T03:23:26;21.90;;;13.40;;
6376;SDS011;3221;48.858;10.128;2024-01-10T03:25:54;22.10;;;14.33;;
6376;SDS011;3221;48.858;10.128;2024-01-10T03:28:23;20.60;;;14.00;;
6376;SDS011;3221;48.858;10.128;2024-01-10T03:30:50;24.90;;;14.50;;
6376;SDS011;3221;48.858;10.128;2024-01-10T03:33:17;21.63;;;14.37;;
6376;SDS011;3221;48.858;10.128;2024-01-10T03:35:44;20.20;;;13.57;;
6376;SDS011;3221;48.858;10.128;2024-01-10T03:38:12;23.40;;;15.13;;
6376;SDS011;3221;48.858;10.128;2024-01-10T03:40:41;22.57;;;14.40;;
6376;SDS011;3221;48.858;10.128;2024-01-10T03:43:08;21.90;;;14.10;;
6376;SDS011;3221;48.858;10.128;2024-01-10T03:45:36;21.97;;;14.17;;
6376;SDS011;3221;48.858;10.128;2024-01-10T03:48:03;21.97;;;14.73;;
6376;SDS011;3221;48.858;10.128;2024-01-10T03:50:30;21.37;;;14.00;;
6376;SDS011;3221;48.858;10.128;2024-01-10T03:52:57;21.97;;;13.90;;
6376;SDS011;3221;48.858;10.128;2024-01-10T03:55:24;22.43;;;14.07;;
6376;SDS011;3221;48.858;10.128;2024-01-10T03:57:51;22.10;;;14.23;;
6376;SDS011;3221;48.858;10.128;2024-01-10T04:00:18;24.13;;;14.60;;
6376;SDS011;3221;48.858;10.128;2024-01-10T04:02:45;24.00;;;15.53;;
6376;SDS011;3221;48.858;10.128;2024-01-10T04:05:14;23.30;;;14.57;;
6376;SDS011;3221;48.858;10.128;2024-01-10T04:07:41;22.67;;;14.83;;
6376;SDS011;3221;48.858;10.128;2024-01-10T04:10:12;20.87;;;14.90;;
6376;SDS011;3221;48.858;10.128;2024-01-10T04:12:41;24.80;;;15.57;;
6376;SDS011;3221;48.858;10.128;2024-01-10T04:15:08;21.03;;;15.00;;
6376;SDS011;3221;48.858;10.128;2024-01-10T04:17:36;21.57;;;15.17;;
6376;SDS011;3221;48.858;10.128;2024-01-10T04:20:03;24.27;;;16.00;;
6376;SDS011;3221;48.858;10.128;2024-01-10T04:22:31;24.50;;;16.63;;
6376;SDS011;3221;48.858;10.128;2024-01-10T04:24:58;23.47;;;15.93;;
6376;SDS011;3221;48.858;10.128;2024-01-10T04:27:27;24.87;;;15.90;;
6376;SDS011;3221;48.858;10.128;2024-01-10T04:29:53;22.27;;;15.60;;
6376;SDS011;3221;48.858;10.128;2024-01-10T04:32:20;24.07;;;16.00;;
6376;SDS011;3221;48.858;10.128;2024-01-10T04:34:47;22.43;;;15.73;;
6376;SDS011;3221;48.858;10.128;2024-01-10T04:37:14;24.43;;;15.37;;
6376;SDS011;3221;48.858;10.128;2024-01-10T04:39:41;23.90;;;16.53;;
6376;SDS011;3221;48.858;10.128;2024-01-10T04:42:11;22.27;;;14.80;;
6376;SDS011;3221;48.858;10.128;2024-01-10T04:44:39;21.33;;;14.63;;
6376;SDS011;3221;48.858;10.128;2024-01-10T04:47:07;24.20;;;16.50;;
6376;SDS011;3221;48.858;10.128;2024-01-10T04:49:34;25.30;;;15.77;;
6376;SDS011;3221;48.858;10.128;2024-01-10T04:52:01;25.00;;;16.83;;
6376;SDS011;3221;48.858;10.128;2024-01-10T04:54:28;25.77;;;16.70;;
6376;SDS011;3221;48.858;10.128;2024-01-10T04:56:55;27.07;;;16.73;;
6376;SDS011;3221;48.858;10.128;2024-01-10T04:59:22;27.03;;;16.33;;
6376;SDS011;3221;48.858;10.128;2024-01-10T05:01:49;26.60;;;16.67;;
6376;SDS011;3221;48.858;10.128;2024-01-10T05:04:16;24.83;;;16.30;;
6376;SDS011;3221;48.858;10.128;2024-01-10T05:06:43;25.77;;;17.17;;
6376;SDS011;3221;48.858;10.128;2024-01-10T05:09:11;26.97;;;17.27;;
6376;SDS011;3221;48.858;10.128;2024-01-10T05:11:38;27.57;;;17.63;;
6376;SDS011;3221;48.858;10.128;2024-01-10T05:14:08;27.07;;;17.67;;
6376;SDS011;3221;48.858;10.128;2024-01-10T05:16:35;26.53;;;17.20;;
6376;SDS011;3221;48.858;10.128;2024-01-10T05:19:02;26.73;;;17.80;;
6376;SDS011;3221;48.858;10.128;2024-01-10T05:21:32;25.43;;;17.10;;
6376;SDS011;3221;48.858;10.128;2024-01-10T05:24:00;27.87;;;18.00;;
6376;SDS011;3221;48.858;10.128;2024-01-10T05:26:26;26.40;;;17.07;;
6376;SDS011;3221;48.858;10.128;2024-01-10T05:28:53;29.03;;;17.60;;
6376;SDS011;3221;48.858;10.128;2024-01-10T05:31:20;28.13;;;18.53;;
6376;SDS011;3221;48.858;10.128;2024-01-10T05:33:47;29.37;;;18.57;;
6376;SDS011;3221;48.858;10.128;2024-01-10T05:36:14;29.47;;;18.83;;
6376;SDS011;3221;48.858;10.128;2024-01-10T05:38:41;27.73;;;18.07;;
6376;SDS011;3221;48.858;10.128;2024-01-10T05:41:08;28.80;;;17.80;;
6376;SDS011;3221;48.858;10.128;2024-01-10T05:43:36;27.87;;;18.70;;
6376;SDS011;3221;48.858;10.128;2024-01-10T05:46:03;28.87;;;19.17;;
6376;SDS011;3221;48.858;10.128;2024-01-10T05:48:31;28.90;;;19.00;;
6376;SDS011;3221;48.858;10.128;2024-01-10T05:50:59;28.07;;;18.37;;
6376;SDS011;3221;48.858;10.128;2024-01-10T05:53:27;29.87;;;19.37;;
6376;SDS011;3221;48.858;10.128;2024-01-10T05:55:55;30.73;;;19.10;;
6376;SDS011;3221;48.858;10.128;2024-01-10T05:58:22;29.43;;;19.63;;
6376;SDS011;3221;48.858;10.128;2024-01-10T06:00:49;29.53;;;18.73;;
6376;SDS011;3221;48.858;10.128;2024-01-10T06:03:16;29.33;;;18.67;;
6376;SDS011;3221;48.858;10.128;2024-01-10T06:05:43;28.93;;;19.07;;
6376;SDS011;3221;48.858;10.128;2024-01-10T06:08:10;28.80;;;19.77;;
6376;SDS011;3221;48.858;10.128;2024-01-10T06:10:37;28.60;;;19.30;;
6376;SDS011;3221;48.858;10.128;2024-01-10T06:13:04;31.77;;;19.37;;
6376;SDS011;3221;48.858;10.128;2024-01-10T06:15:31;27.47;;;18.40;;
6376;SDS011;3221;48.858;10.128;2024-01-10T06:17:58;29.17;;;19.80;;
6376;SDS011;3221;48.858;10.128;2024-01-10T06:20:25;28.57;;;19.50;;
6376;SDS011;3221;48.858;10.128;2024-01-10T06:22:52;28.70;;;19.40;;
6376;SDS011;3221;48.858;10.128;2024-01-10T06:25:19;30.87;;;19.07;;
6376;SDS011;3221;48.858;10.128;2024-01-10T06:27:46;30.37;;;19.77;;
6376;SDS011;3221;48.858;10.128;2024-01-10T06:30:13;29.80;;;19.70;;
6376;SDS011;3221;48.858;10.128;2024-01-10T06:32:40;30.53;;;18.93;;
6376;SDS011;3221;48.858;10.128;2024-01-10T06:35:07;29.77;;;19.67;;
6376;SDS011;3221;48.858;10.128;2024-01-10T06:37:37;32.30;;;20.40;;
6376;SDS011;3221;48.858;10.128;2024-01-10T06:40:04;30.13;;;20.17;;
6376;SDS011;3221;48.858;10.128;2024-01-10T06:42:32;30.57;;;20.63;;
6376;SDS011;3221;48.858;10.128;2024-01-10T06:44:59;29.90;;;19.87;;
6376;SDS011;3221;48.858;10.128;2024-01-10T06:47:26;27.63;;;19.50;;
6376;SDS011;3221;48.858;10.128;2024-01-10T06:49:54;26.30;;;18.97;;
6376;SDS011;3221;48.858;10.128;2024-01-10T06:52:20;31.53;;;19.43;;
6376;SDS011;3221;48.858;10.128;2024-01-10T06:54:47;34.53;;;21.40;;
6376;SDS011;3221;48.858;10.128;2024-01-10T06:57:14;31.23;;;20.60;;
6376;SDS011;3221;48.858;10.128;2024-01-10T06:59:41;29.30;;;19.67;;
6376;SDS011;3221;48.858;10.128;2024-01-10T07:02:09;31.37;;;20.53;;
6376;SDS011;3221;48.858;10.128;2024-01-10T07:04:37;30.73;;;20.63;;
6376;SDS011;3221;48.858;10.128;2024-01-10T07:07:04;30.93;;;19.83;;
6376;SDS011;3221;48.858;10.128;2024-01-10T07:09:32;32.33;;;21.83;;
6376;SDS011;3221;48.858;10.128;2024-01-10T07:11:59;32.77;;;21.50;;
6376;SDS011;3221;48.858;10.128;2024-01-10T07:14:26;32.37;;;20.57;;
6376;SDS011;3221;48.858;10.128;2024-01-10T07:16:53;31.70;;;21.43;;
6376;SDS011;3221;48.858;10.128;2024-01-10T07:19:23;35.47;;;22.77;;
6376;SDS011;3221;48.858;10.128;2024-01-10T07:21:50;30.83;;;21.47;;
6376;SDS011;3221;48.858;10.128;2024-01-10T07:24:17;31.53;;;21.53;;
6376;SDS011;3221;48.858;10.128;2024-01-10T07:26:44;31.50;;;21.13;;
6376;SDS011;3221;48.858;10.128;2024-01-10T07:29:11;31.80;;;20.90;;
6376;SDS011;3221;48.858;10.128;2024-01-10T07:31:38;32.93;;;21.63;;
6376;SDS011;3221;48.858;10.128;2024-01-10T07:34:05;33.23;;;21.80;;
6376;SDS011;3221;48.858;10.128;2024-01-10T07:36:33;32.37;;;21.17;;
6376;SDS011;3221;48.858;10.128;2024-01-10T07:39:00;32.50;;;22.17;;
6376;SDS011;3221;48.858;10.128;2024-01-10T07:41:30;31.83;;;22.03;;
6376;SDS011;3221;48.858;10.128;2024-01-10T07:43:57;32.97;;;22.20;;
6376;SDS011;3221;48.858;10.128;2024-01-10T07:46:24;33.83;;;22.07;;
6376;SDS011;3221;48.858;10.128;2024-01-10T07:48:53;32.80;;;21.97;;
6376;SDS011;3221;48.858;10.128;2024-01-10T07:51:20;32.87;;;22.20;;
6376;SDS011;3221;48.858;10.128;2024-01-10T07:53:48;33.13;;;23.03;;
6376;SDS011;3221;48.858;10.128;2024-01-10T07:56:15;34.03;;;22.33;;
6376;SDS011;3221;48.858;10.128;2024-01-10T07:58:42;33.87;;;22.23;;
6376;SDS011;3221;48.858;10.128;2024-01-10T08:01:09;35.07;;;22.90;;
6376;SDS011;3221;48.858;10.128;2024-01-10T08:03:37;35.60;;;23.17;;
6376;SDS011;3221;48.858;10.128;2024-01-10T08:06:04;40.30;;;23.57;;
6376;SDS011;3221;48.858;10.128;2024-01-10T08:08:45;36.67;;;23.43;;
6376;SDS011;3221;48.858;10.128;2024-01-10T08:11:12;34.27;;;22.53;;
6376;SDS011;3221;48.858;10.128;2024-01-10T08:13:39;34.03;;;22.83;;
6376;SDS011;3221;48.858;10.128;2024-01-10T08:16:06;36.77;;;24.63;;
6376;SDS011;3221;48.858;10.128;2024-01-10T08:18:35;35.80;;;23.57;;
6376;SDS011;3221;48.858;10.128;2024-01-10T08:21:02;36.40;;;23.93;;
6376;SDS011;3221;48.858;10.128;2024-01-10T08:23:30;35.87;;;23.77;;
6376;SDS011;3221;48.858;10.128;2024-01-10T08:25:57;35.30;;;24.20;;
6376;SDS011;3221;48.858;10.128;2024-01-10T08:28:24;36.43;;;24.70;;
6376;SDS011;3221;48.858;10.128;2024-01-10T08:30:52;36.23;;;23.57;;
6376;SDS011;3221;48.858;10.128;2024-01-10T08:33:29;37.90;;;25.37;;
6376;SDS011;3221;48.858;10.128;2024-01-10T08:35:57;37.77;;;25.00;;
6376;SDS011;3221;48.858;10.128;2024-01-10T08:38:25;37.53;;;25.07;;
6376;SDS011;3221;48.858;10.128;2024-01-10T08:40:52;38.80;;;24.97;;
6376;SDS011;3221;48.858;10.128;2024-01-10T08:43:19;39.07;;;25.73;;
6376;SDS011;3221;48.858;10.128;2024-01-10T08:45:46;38.70;;;25.43;;
6376;SDS011;3221;48.858;10.128;2024-01-10T08:48:13;37.53;;;24.43;;
6376;SDS011;3221;48.858;10.128;2024-01-10T08:50:40;36.00;;;24.13;;
6376;SDS011;3221;48.858;10.128;2024-01-10T08:53:07;38.80;;;24.17;;
6376;SDS011;3221;48.858;10.128;2024-01-10T08:55:34;38.77;;;25.33;;
6376;SDS011;3221;48.858;10.128;2024-01-10T08:58:03;39.23;;;24.80;;
6376;SDS011;3221;48.858;10.128;2024-01-10T09:00:30;38.37;;;25.17;;
6376;SDS011;3221;48.858;10.128;2024-01-10T09:02:58;39.67;;;25.73;;
6376;SDS011;3221;48.858;10.128;2024-01-10T09:05:25;35.40;;;23.97;;
6376;SDS011;3221;48.858;10.128;2024-01-10T09:07:51;37.97;;;25.17;;
6376;SDS011;3221;48.858;10.128;2024-01-10T09:10:20;38.40;;;23.93;;
6376;SDS011;3221;48.858;10.128;2024-01-10T09:12:49;37.20;;;23.47;;
6376;SDS011;3221;48.858;10.128;2024-01-10T09:15:16;35.83;;;24.33;;
6376;SDS011;3221;48.858;10.128;2024-01-10T09:17:43;39.83;;;25.60;;
6376;SDS011;3221;48.858;10.128;2024-01-10T09:20:11;35.60;;;23.70;;
6376;SDS011;3221;48.858;10.128;2024-01-10T09:22:39;37.40;;;24.37;;
6376;SDS011;3221;48.858;10.128;2024-01-10T09:25:06;35.50;;;23.83;;
6376;SDS011;3221;48.858;10.128;2024-01-10T09:27:33;39.97;;;25.40;;
6376;SDS011;3221;48.858;10.128;2024-01-10T09:30:01;38.87;;;24.83;;
6376;SDS011;3221;48.858;10.128;2024-01-10T09:32:28;44.37;;;24.70;;
6376;SDS011;3221;48.858;10.128;2024-01-10T09:34:56;39.07;;;23.50;;
6376;SDS011;3221;48.858;10.128;2024-01-10T09:37:23;36.93;;;24.40;;
6376;SDS011;3221;48.858;10.128;2024-01-10T09:39:50;39.03;;;25.60;;
6376;SDS011;3221;48.858;10.128;2024-01-10T09:42:16;33.97;;;24.30;;
6376;SDS011;3221;48.858;10.128;2024-01-10T09:44:44;36.50;;;24.57;;
6376;SDS011;3221;48.858;10.128;2024-01-10T09:47:13;36.30;;;24.47;;
6376;SDS011;3221;48.858;10.128;2024-01-10T09:49:41;33.77;;;23.17;;
6376;SDS011;3221;48.858;10.128;2024-01-10T09:52:11;34.77;;;24.17;;
6376;SDS011;3221;48.858;10.128;2024-01-10T09:54:51;33.53;;;22.87;;
6376;SDS011;3221;48.858;10.128;2024-01-10T09:57:22;33.77;;;22.23;;
6376;SDS011;3221;48.858;10.128;2024-01-10T09:59:50;52.47;;;23.73;;
6376;SDS011;3221;48.858;10.128;2024-01-10T10:02:18;31.83;;;21.47;;
6376;SDS011;3221;48.858;10.128;2024-01-10T10:04:54;33.87;;;22.97;;
6376;SDS011;3221;48.858;10.128;2024-01-10T10:07:27;33.43;;;22.67;;
6376;SDS011;3221;48.858;10.128;2024-01-10T10:09:54;32.97;;;22.07;;
6376;SDS011;3221;48.858;10.128;2024-01-10T10:12:26;33.37;;;22.70;;
6376;SDS011;3221;48.858;10.128;2024-01-10T10:15:12;31.10;;;21.53;;
6376;SDS011;3221;48.858;10.128;2024-01-10T10:17:40;33.77;;;22.03;;
6376;SDS011;3221;48.858;10.128;2024-01-10T10:20:13;32.43;;;22.50;;
6376;SDS011;3221;48.858;10.128;2024-01-10T10:22:43;33.50;;;22.40;;
6376;SDS011;3221;48.858;10.128;2024-01-10T10:25:24;34.67;;;23.13;;
6376;SDS011;3221;48.858;10.128;2024-01-10T10:28:02;36.00;;;22.97;;
6376;SDS011;3221;48.858;10.128;2024-01-10T10:30:30;32.10;;;22.37;;
6376;SDS011;3221;48.858;10.128;2024-01-10T10:32:58;33.23;;;22.33;;
6376;SDS011;3221;48.858;10.128;2024-01-10T10:35:25;32.00;;;22.20;;
6376;SDS011;3221;48.858;10.128;2024-01-10T10:38:07;31.90;;;22.40;;
6376;SDS011;3221;48.858;10.128;2024-01-10T10:40:36;33.77;;;22.07;;
6376;SDS011;3221;48.858;10.128;2024-01-10T10:43:03;32.97;;;22.50;;
6376;SDS011;3221;48.858;10.128;2024-01-10T10:45:31;32.87;;;22.10;;
6376;SDS011;3221;48.858;10.128;2024-01-10T10:48:00;32.00;;;22.27;;
6376;SDS011;3221;48.858;10.128;2024-01-10T10:50:31;34.10;;;22.83;;
6376;SDS011;3221;48.858;10.128;2024-01-10T10:53:03;31.63;;;22.40;;
6376;SDS011;3221;48.858;10.128;2024-01-10T10:55:31;33.07;;;22.40;;
6376;SDS011;3221;48.858;10.128;2024-01-10T10:57:59;35.67;;;22.60;;
6376;SDS011;3221;48.858;10.128;2024-01-10T11:00:37;35.13;;;22.87;;
6376;SDS011;3221;48.858;10.128;2024-01-10T11:03:07;33.20;;;23.80;;
6376;SDS011;3221;48.858;10.128;2024-01-10T11:05:37;34.57;;;24.27;;
6376;SDS011;3221;48.858;10.128;2024-01-10T11:08:08;38.70;;;24.77;;
6376;SDS011;3221;48.858;10.128;2024-01-10T11:10:38;36.80;;;24.03;;
6376;SDS011;3221;48.858;10.128;2024-01-10T11:25:00;34.07;;;22.83;;
6376;SDS011;3221;48.858;10.128;2024-01-10T11:27:28;34.93;;;22.40;;
6376;SDS011;3221;48.858;10.128;2024-01-10T11:29:56;32.87;;;21.77;;
6376;SDS011;3221;48.858;10.128;2024-01-10T11:32:25;33.93;;;23.20;;
6376;SDS011;3221;48.858;10.128;2024-01-10T11:37:20;32.90;;;22.17;;
6376;SDS011;3221;48.858;10.128;2024-01-10T11:39:47;60.20;;;24.47;;
6376;SDS011;3221;48.858;10.128;2024-01-10T11:42:23;43.43;;;22.17;;
6376;SDS011;3221;48.858;10.128;2024-01-10T11:45:06;36.67;;;21.40;;
6376;SDS011;3221;48.858;10.128;2024-01-10T11:47:37;37.27;;;21.57;;
6376;SDS011;3221;48.858;10.128;2024-01-10T11:50:07;37.87;;;22.47;;
6376;SDS011;3221;48.858;10.128;2024-01-10T11:52:36;35.97;;;21.63;;
6376;SDS011;3221;48.858;10.128;2024-01-10T11:55:03;36.87;;;21.27;;
6376;SDS011;3221;48.858;10.128;2024-01-10T11:57:33;41.27;;;23.30;;
6376;SDS011;3221;48.858;10.128;2024-01-10T12:00:01;37.70;;;24.30;;
6376;SDS011;3221;48.858;10.128;2024-01-10T12:02:31;37.47;;;23.27;;
6376;SDS011;3221;48.858;10.128;2024-01-10T12:04:59;37.60;;;23.07;;
6376;SDS011;3221;48.858;10.128;2024-01-10T12:07:26;35.70;;;22.73;;
6376;SDS011;3221;48.858;10.128;2024-01-10T12:09:54;62.10;;;37.03;;
6376;SDS011;3221;48.858;10.128;2024-01-10T12:12:21;40.23;;;23.57;;
6376;SDS011;3221;48.858;10.128;2024-01-10T12:14:48;38.37;;;23.33;;
6376;SDS011;3221;48.858;10.128;2024-01-10T12:17:17;67.10;;;46.57;;
6376;SDS011;3221;48.858;10.128;2024-01-10T12:19:45;45.43;;;29.90;;
6376;SDS011;3221;48.858;10.128;2024-01-10T12:22:16;40.50;;;25.57;;
6376;SDS011;3221;48.858;10.128;2024-01-10T12:24:43;38.57;;;24.73;;
6376;SDS011;3221;48.858;10.128;2024-01-10T12:27:16;36.87;;;23.40;;
6376;SDS011;3221;48.858;10.128;2024-01-10T12:29:47;37.33;;;22.50;;
6376;SDS011;3221;48.858;10.128;2024-01-10T12:32:16;36.40;;;22.97;;
6376;SDS011;3221;48.858;10.128;2024-01-10T12:34:45;35.63;;;22.63;;
6376;SDS011;3221;48.858;10.128;2024-01-10T12:37:12;36.07;;;23.07;;
6376;SDS011;3221;48.858;10.128;2024-01-10T12:39:39;33.07;;;21.93;;
6376;SDS011;3221;48.858;10.128;2024-01-10T12:42:06;33.63;;;21.60;;
6376;SDS011;3221;48.858;10.128;2024-01-10T12:44:33;31.27;;;20.33;;
6376;SDS011;3221;48.858;10.128;2024-01-10T12:47:00;37.63;;;22.40;;
6376;SDS011;3221;48.858;10.128;2024-01-10T12:49:29;36.93;;;22.73;;
6376;SDS011;3221;48.858;10.128;2024-01-10T12:51:56;33.40;;;20.37;;
6376;SDS011;3221;48.858;10.128;2024-01-10T12:54:22;32.97;;;21.33;;
6376;SDS011;3221;48.858;10.128;2024-01-10T12:56:49;32.50;;;22.20;;
6376;SDS011;3221;48.858;10.128;2024-01-10T12:59:16;34.13;;;21.13;;
6376;SDS011;3221;48.858;10.128;2024-01-10T13:01:44;33.40;;;21.50;;
6376;SDS011;3221;48.858;10.128;2024-01-10T13:04:11;36.03;;;22.30;;
6376;SDS011;3221;48.858;10.128;2024-01-10T13:06:39;33.57;;;21.67;;
6376;SDS011;3221;48.858;10.128;2024-01-10T13:09:07;38.00;;;22.90;;
6376;SDS011;3221;48.858;10.128;2024-01-10T13:11:34;38.07;;;23.30;;
6376;SDS011;3221;48.858;10.128;2024-01-10T13:14:01;34.37;;;22.03;;
6376;SDS011;3221;48.858;10.128;2024-01-10T13:16:28;38.73;;;23.13;;
6376;SDS011;3221;48.858;10.128;2024-01-10T13:18:56;34.63;;;21.60;;
6376;SDS011;3221;48.858;10.128;2024-01-10T13:21:24;35.63;;;21.67;;
6376;SDS011;3221;48.858;10.128;2024-01-10T13:23:51;36.17;;;22.90;;
6376;SDS011;3221;48.858;10.128;2024-01-10T13:26:18;34.73;;;21.33;;
6376;SDS011;3221;48.858;10.128;2024-01-10T13:28:45;36.07;;;22.47;;
6376;SDS011;3221;48.858;10.128;2024-01-10T13:31:12;35.00;;;22.33;;
6376;SDS011;3221;48.858;10.128;2024-01-10T13:33:39;36.97;;;23.20;;
6376;SDS011;3221;48.858;10.128;2024-01-10T13:36:13;34.63;;;20.93;;
6376;SDS011;3221;48.858;10.128;2024-01-10T13:38:40;35.80;;;21.83;;
6376;SDS011;3221;48.858;10.128;2024-01-10T13:41:07;35.00;;;21.83;;
6376;SDS011;3221;48.858;10.128;2024-01-10T13:43:35;35.03;;;22.10;;
6376;SDS011;3221;48.858;10.128;2024-01-10T13:46:02;35.63;;;21.73;;
6376;SDS011;3221;48.858;10.128;2024-01-10T13:48:34;37.57;;;22.13;;
6376;SDS011;3221;48.858;10.128;2024-01-10T13:51:04;41.20;;;23.30;;
6376;SDS011;3221;48.858;10.128;2024-01-10T13:53:31;34.53;;;22.27;;
6376;SDS011;3221;48.858;10.128;2024-01-10T13:55:58;39.20;;;23.40;;
6376;SDS011;3221;48.858;10.128;2024-01-10T13:58:25;38.20;;;24.07;;
6376;SDS011;3221;48.858;10.128;2024-01-10T14:00:52;35.03;;;22.40;;
6376;SDS011;3221;48.858;10.128;2024-01-10T14:03:19;37.03;;;22.23;;
6376;SDS011;3221;48.858;10.128;2024-01-10T14:05:46;37.43;;;23.17;;
6376;SDS011;3221;48.858;10.128;2024-01-10T14:08:13;36.57;;;22.77;;
6376;SDS011;3221;48.858;10.128;2024-01-10T14:10:40;36.13;;;22.37;;
6376;SDS011;3221;48.858;10.128;2024-01-10T14:13:08;36.33;;;22.67;;
6376;SDS011;3221;48.858;10.128;2024-01-10T14:15:35;35.37;;;23.10;;
6376;SDS011;3221;48.858;10.128;2024-01-10T14:18:02;35.57;;;23.03;;
6376;SDS011;3221;48.858;10.128;2024-01-10T14:20:30;36.40;;;22.83;;
6376;SDS011;3221;48.858;10.128;2024-01-10T14:22:57;36.20;;;22.53;;
6376;SDS011;3221;48.858;10.128;2024-01-10T14:25:24;39.50;;;23.93;;
6376;SDS011;3221;48.858;10.128;2024-01-10T14:27:51;39.47;;;24.07;;
6376;SDS011;3221;48.858;10.128;2024-01-10T14:30:18;36.77;;;22.87;;
6376;SDS011;3221;48.858;10.128;2024-01-10T14:32:45;35.33;;;23.00;;
6376;SDS011;3221;48.858;10.128;2024-01-10T14:35:14;37.23;;;24.20;;
6376;SDS011;3221;48.858;10.128;2024-01-10T14:37:42;36.10;;;22.27;;
6376;SDS011;3221;48.858;10.128;2024-01-10T14:40:09;37.60;;;23.50;;
6376;SDS011;3221;48.858;10.128;2024-01-10T14:42:37;37.80;;;22.90;;
6376;SDS011;3221;48.858;10.128;2024-01-10T14:45:04;39.50;;;24.17;;
6376;SDS011;3221;48.858;10.128;2024-01-10T14:47:31;35.57;;;23.70;;
6376;SDS011;3221;48.858;10.128;2024-01-10T14:49:58;37.97;;;23.40;;
6376;SDS011;3221;48.858;10.128;2024-01-10T14:52:26;37.43;;;24.00;;